Weather at Agra Airport

Public forecast

Using degrees Celsius for public forecast. Weather courtesy of forecast.io.

Current aviation weather report (METAR) for Agra Airport

Report is more than 2 hours old.

Retrieved 2020/10/28 08:30 UTC (2 hours ago):

VIAG 280830Z 36004KT 6000 SKC 32/09 Q1012 NOSIG

Aviation forecast (TAF) for Agra Airport

Retrieved 2020/10/28 06:30 UTC (4 hours ago):

TAF VIAG 280330Z 2806/2818 33010KT 3000 HZ NSC BECMG 2807/2812 32010KT 4500 HZ NSC BECMG 2813/2818 VRB02KT 4000 BR NSC